DW0148 Weather Reports


time (UTC)temp
C
wind
direction
speed
KPH
gust
KPH
rain 1hr
cm
rain 24hr
cm
rain mn
cm
humidity
%
barometer
mb
20210723161324 29 144 1.6 4.8 0.00 0.00 0.00 67 1019.3
20210723160823 28 249 1.6 4.8 0.00 0.00 0.00 66 1019.3
20210723160322 28 325 1.6 8.0 0.00 0.00 0.00 69 1019.3
20210723155821 28 276 1.6 14.5 0.00 0.00 0.00 66 1019.3
20210723155319 28 250 1.6 14.5 0.00 0.00 0.00 67 1019.3
20210723154818 27 162 0.0 14.5 0.00 0.00 0.00 69 1019.3
20210723154317 27 49 3.2 14.5 0.00 0.00 0.00 69 1019.3
20210723153815 27 336 3.2 12.9 0.00 0.00 0.00 70 1019.6
20210723153314 27 6 4.8 12.9 0.00 0.00 0.00 70 1019.6
20210723152809 27 12 3.2 8.0 0.00 0.00 0.00 71 1019.6
20210723152308 27 19 3.2 8.0 0.00 0.00 0.00 70 1019.6
20210723151806 27 24 3.2 8.0 0.00 0.00 0.00 70 1019.6
20210723151305 27 10 0.0 8.0 0.00 0.00 0.00 71 1019.6
20210723150803 27 75 1.6 9.7 0.00 0.00 0.00 69 1019.6
20210723150302 27 38 1.6 9.7 0.00 0.00 0.00 70 1019.6
20210723145758 26 89 1.6 9.7 0.00 0.00 0.00 71 1019.6
20210723145257 26 45 3.2 9.7 0.00 0.00 0.00 70 1019.6
20210723144756 26 21 3.2 9.7 0.00 0.00 0.00 70 1019.6
20210723144255 26 309 3.2 9.7 0.00 0.00 0.00 71 1019.6
20210723143754 26 351 3.2 9.7 0.00 0.00 0.00 71 1019.6
20210723143253 26 338 0.0 12.9 0.00 0.00 0.00 74 1019.6
20210723142752 26 305 1.6 12.9 0.00 0.00 0.00 73 1020.0
20210723142250 25 46 0.0 12.9 0.00 0.00 0.00 76 1019.6
20210723141749 25 359 4.8 12.9 0.00 0.00 0.00 74 1020.0
20210723141247 25 32 3.2 12.9 0.00 0.00 0.00 77 1020.0
20210723140746 25 358 4.8 12.9 0.00 0.00 0.00 76 1020.0
20210723140244 24 349 4.8 12.9 0.00 0.00 0.00 78 1020.0
20210723135743 24 341 3.2 12.9 0.00 0.00 0.00 79 1020.0
20210723135242 23 333 4.8 12.9 0.00 0.00 0.00 78 1020.0
20210723134741 23 343 4.8 17.7 0.00 0.00 0.00 79 1019.6
20210723134240 23 340 6.4 17.7 0.00 0.00 0.00 79 1020.0
20210723133738 23 339 6.4 17.7 0.00 0.00 0.00 80 1020.0
20210723133237 23 329 4.8 17.7 0.00 0.00 0.00 80 1020.0
20210723132736 23 4 6.4 9.7 0.00 0.00 0.00 83 1020.0
20210723132235 23 287 1.6 8.0 0.00 0.00 0.00 88 1019.6
20210723131733 23 341 3.2 8.0 0.00 0.00 0.00 90 1019.6
20210723131232 22 349 3.2 8.0 0.00 0.00 0.00 91 1019.6
20210723130730 22 346 3.2 8.0 0.00 0.00 0.00 92 1019.6
20210723130229 22 349 3.2 8.0 0.00 0.00 0.00 94 1019.6
20210723125728 22 2 4.8 8.0 0.00 0.00 0.00 95 1019.6
20210723125227 21 336 1.6 8.0 0.00 0.00 0.00 96 1019.6
20210723124725 21 345 3.2 8.0 0.00 0.00 0.00 97 1019.6
20210723124220 21 354 1.6 3.2 0.00 0.00 0.00 97 1019.6
20210723123719 21 23 0.0 0.0 0.00 0.00 0.00 97 1019.6
20210723123218 20 23 0.0 0.0 0.00 0.00 0.00 97 1019.3
20210723122716 20 23 0.0 0.0 0.00 0.00 0.00 97 1019.3
20210723122215 20 23 0.0 0.0 0.00 0.00 0.00 97 1019.3
20210723121714 20 23 0.0 0.0 0.00 0.00 0.00 97 1019.3
20210723121213 20 23 0.0 0.0 0.00 0.00 0.00 97 1019.3
20210723120711 19 23 0.0 0.0 0.00 0.00 0.00 97 1019.3
20210723120210 19 23 0.0 0.0 0.00 0.00 0.00 97 1019.3
20210723115709 19 23 0.0 0.0 0.00 0.00 0.00 97 1019.3
20210723115209 19 23 0.0 0.0 0.00 0.00 0.00 97 1019.3
20210723114706 18 23 0.0 0.0 0.00 0.00 0.00 97 1019.3
20210723114205 18 23 0.0 0.0 0.00 0.00 0.00 97 1019.3
20210723113704 18 23 0.0 0.0 0.00 0.00 0.00 97 1019.3
20210723113202 18 23 0.0 0.0 0.00 0.00 0.00 97 1019.0
20210723112701 18 23 0.0 0.0 0.00 0.00 0.00 97 1019.0
20210723112200 18 23 0.0 0.0 0.00 0.00 0.00 97 1019.0
20210723111659 18 23 0.0 0.0 0.00 0.00 0.00 97 1019.0
20210723111158 18 23 0.0 0.0 0.00 0.00 0.00 97 1019.0
20210723110657 18 23 0.0 0.0 0.00 0.00 0.00 97 1019.0
20210723110155 18 23 0.0 0.0 0.00 0.00 0.00 97 1019.0
20210723105654 18 23 0.0 0.0 0.00 0.00 0.00 97 1019.0
20210723105152 18 23 0.0 0.0 0.00 0.00 0.00 97 1019.0
20210723104652 18 23 0.0 0.0 0.00 0.00 0.00 97 1019.0
20210723104151 18 23 0.0 0.0 0.00 0.00 0.00 96 1019.0
20210723103649 18 23 0.0 0.0 0.00 0.00 0.00 97 1019.0
20210723103148 18 23 0.0 0.0 0.00 0.00 0.00 97 1018.6
20210723102646 18 23 0.0 0.0 0.00 0.00 0.00 97 1018.6
20210723102141 18 23 0.0 0.0 0.00 0.00 0.00 96 1018.6
20210723101639 18 23 0.0 0.0 0.00 0.00 0.00 96 1018.6
20210723101136 18 23 0.0 0.0 0.00 0.00 0.00 96 1018.6
20210723100635 18 23 0.0 0.0 0.00 0.00 0.00 96 1018.6
20210723100131 18 23 0.0 0.0 0.00 0.00 0.00 96 1018.6
20210723095630 18 23 0.0 0.0 0.00 0.00 0.00 96 1018.6
20210723095128 18 23 0.0 0.0 0.00 0.00 0.00 96 1018.6
20210723094628 18 23 0.0 0.0 0.00 0.00 0.00 96 1018.6
20210723094127 18 23 0.0 0.0 0.00 0.00 0.00 96 1018.6
20210723093625 18 23 0.0 0.0 0.00 0.00 0.00 96 1018.3
20210723093124 18 23 0.0 0.0 0.00 0.00 0.00 96 1018.3
20210723092623 18 23 0.0 0.0 0.00 0.00 0.00 96 1018.3
20210723092122 18 23 0.0 0.0 0.00 0.00 0.00 96 1018.3
20210723091618 18 23 0.0 0.0 0.00 0.00 0.00 96 1018.3
20210723091116 18 23 0.0 0.0 0.00 0.00 0.00 96 1018.3
20210723090614 18 23 0.0 0.0 0.00 0.00 0.00 96 1018.3
20210723090113 18 23 0.0 0.0 0.00 0.00 0.00 96 1018.3
20210723085612 18 23 0.0 0.0 0.00 0.00 0.00 96 1018.3
20210723085110 18 23 0.0 0.0 0.00 0.00 0.00 96 1018.3
20210723084609 18 23 0.0 0.0 0.00 0.00 0.00 96 1018.3
20210723084108 18 23 0.0 0.0 0.00 0.00 0.00 96 1018.3
20210723083607 18 23 0.0 0.0 0.00 0.00 0.00 96 1018.3
20210723083106 18 23 0.0 0.0 0.00 0.00 0.00 96 1018.3
20210723082604 18 23 0.0 0.0 0.00 0.00 0.00 96 1018.3
20210723082103 18 23 0.0 0.0 0.00 0.00 0.00 96 1017.9
20210723081601 18 23 0.0 0.0 0.00 0.00 0.00 96 1018.3
20210723081055 18 23 0.0 0.0 0.00 0.00 0.00 96 1018.3
20210723080555 18 23 0.0 0.0 0.00 0.00 0.00 96 1018.3
20210723080053 18 23 0.0 0.0 0.00 0.00 0.00 96 1017.9
20210723075553 18 23 0.0 0.0 0.00 0.00 0.00 96 1018.3
20210723075051 18 23 0.0 0.0 0.00 0.00 0.00 96 1018.3
20210723074550 18 23 0.0 0.0 0.00 0.00 0.00 96 1018.3
20210723074049 18 23 0.0 0.0 0.00 0.00 0.00 96 1018.3
20210723073548 18 23 0.0 0.0 0.00 0.00 0.00 96 1018.3
20210723073047 18 23 0.0 0.0 0.00 0.00 0.00 96 1018.3
20210723072547 18 23 0.0 0.0 0.00 0.00 0.00 96 1018.3
20210723072046 18 23 0.0 0.0 0.00 0.00 0.00 96 1018.3
20210723071545 18 23 0.0 0.0 0.00 0.00 0.00 96 1018.3
20210723071044 18 23 0.0 0.0 0.00 0.00 0.00 96 1018.3
20210723070542 18 23 0.0 0.0 0.00 0.00 0.00 96 1018.3
20210723070042 18 23 0.0 0.0 0.00 0.00 0.00 96 1018.6
20210723065541 18 23 0.0 0.0 0.00 0.00 0.00 96 1018.6
20210723065039 19 23 0.0 0.0 0.00 0.00 0.00 95 1018.6
20210723064533 19 23 0.0 0.0 0.00 0.00 0.00 96 1018.6
20210723064032 19 23 0.0 0.0 0.00 0.00 0.00 96 1018.6
20210723063530 19 23 0.0 0.0 0.00 0.00 0.00 96 1018.6
20210723063029 19 23 0.0 0.0 0.00 0.00 0.00 96 1018.6
20210723062528 19 23 0.0 0.0 0.00 0.00 0.00 95 1018.6
20210723062026 19 23 0.0 0.0 0.00 0.00 0.00 95 1018.6
20210723061525 19 23 0.0 0.0 0.00 0.00 0.00 95 1018.6
20210723061023 19 23 0.0 0.0 0.00 0.00 0.00 95 1018.6
20210723060522 19 23 0.0 0.0 0.00 0.00 0.00 95 1018.6
20210723060021 19 23 0.0 0.0 0.00 0.00 0.00 95 1019.0
20210723055520 19 23 0.0 0.0 0.00 0.00 0.00 95 1019.0
20210723055018 19 23 0.0 0.0 0.00 0.00 0.00 95 1019.0
20210723054517 19 23 0.0 0.0 0.00 0.00 0.00 95 1019.0
20210723054016 20 23 0.0 0.0 0.00 0.00 0.00 95 1019.0
20210723053514 20 23 0.0 0.0 0.00 0.00 0.00 95 1019.0
20210723053013 20 23 0.0 0.0 0.00 0.00 0.00 95 1019.0
20210723052512 20 23 0.0 0.0 0.00 0.00 0.00 95 1019.0
20210723052010 20 23 0.0 0.0 0.00 0.00 0.00 95 1019.3
20210723051509 20 23 0.0 0.0 0.00 0.00 0.00 95 1019.3
20210723051008 20 23 0.0 0.0 0.00 0.00 0.00 95 1019.3
20210723050507 20 23 0.0 0.0 0.00 0.00 0.00 95 1019.3
20210723050006 20 23 0.0 0.0 0.00 0.00 0.00 95 1019.3
20210723045504 20 23 0.0 0.0 0.00 0.00 0.00 94 1019.3
20210723045002 20 23 0.0 0.0 0.00 0.00 0.00 94 1019.3
20210723044501 20 23 0.0 0.0 0.00 0.00 0.00 94 1019.3
20210723044000 20 23 0.0 0.0 0.00 0.00 0.00 94 1019.3
20210723043459 20 23 0.0 0.0 0.00 0.00 0.00 94 1019.0
20210723042958 20 23 0.0 0.0 0.00 0.00 0.00 94 1019.3
20210723042458 20 23 0.0 0.0 0.00 0.00 0.00 94 1019.0
20210723041956 20 23 0.0 0.0 0.00 0.00 0.00 94 1019.0
20210723041454 20 23 0.0 0.0 0.00 0.00 0.00 94 1019.0
20210723040952 20 23 0.0 0.0 0.00 0.00 0.00 94 1019.0
20210723040451 21 23 0.0 0.0 0.00 0.00 0.00 94 1019.3
20210723035950 21 23 0.0 0.0 0.00 0.00 0.00 94 1019.3
20210723035449 21 23 0.0 0.0 0.00 0.00 0.00 94 1019.3
20210723034948 21 23 0.0 0.0 0.00 0.00 0.00 93 1019.3
20210723034447 21 23 0.0 0.0 0.00 0.00 0.00 93 1019.3
20210723033945 21 23 0.0 0.0 0.00 0.00 0.00 94 1019.3
20210723033444 21 23 0.0 0.0 0.00 0.00 0.00 94 1019.3
20210723032943 21 23 0.0 0.0 0.00 0.00 0.00 94 1019.3
20210723032442 21 23 0.0 0.0 0.00 0.00 0.00 93 1019.3
20210723031941 21 23 0.0 0.0 0.00 0.00 0.00 93 1019.3
20210723031440 21 23 0.0 0.0 0.00 0.00 0.00 93 1019.3
20210723030939 21 23 0.0 0.0 0.00 0.00 0.00 93 1019.3
20210723030437 21 23 0.0 0.0 0.00 0.00 0.00 93 1019.3
20210723025936 21 23 0.0 0.0 0.00 0.00 0.00 93 1019.0
20210723025435 21 23 0.0 0.0 0.00 0.00 0.00 93 1019.0
20210723024931 21 23 0.0 0.0 0.00 0.00 0.00 93 1019.0
20210723024429 21 23 0.0 0.0 0.00 0.00 0.00 93 1019.0
20210723023928 21 23 0.0 0.0 0.00 0.00 0.00 93 1019.0
20210723023427 21 23 0.0 0.0 0.00 0.00 0.00 92 1019.0
20210723022927 21 23 0.0 0.0 0.00 0.00 0.00 92 1019.0
20210723022418 21 23 0.0 0.0 0.00 0.00 0.00 92 1019.0
20210723021917 21 23 0.0 0.0 0.00 0.00 0.00 92 1019.0
20210723021416 21 23 0.0 0.0 0.00 0.00 0.00 92 1019.0
20210723020915 22 23 0.0 0.0 0.00 0.00 0.00 92 1018.6
20210723020414 22 23 0.0 0.0 0.00 0.00 0.00 92 1018.6
20210723015912 22 23 0.0 0.0 0.00 0.00 0.00 91 1018.6
20210723015411 22 23 0.0 0.0 0.00 0.00 0.00 91 1018.6
20210723014910 22 23 0.0 0.0 0.00 0.00 0.00 91 1018.6
20210723014407 22 23 0.0 0.0 0.00 0.00 0.00 91 1018.6
20210723013906 22 23 0.0 0.0 0.00 0.00 0.00 91 1018.6
20210723013404 22 23 0.0 0.0 0.00 0.00 0.00 90 1018.6
20210723012903 22 23 0.0 0.0 0.00 0.00 0.00 90 1018.6
20210723012401 22 23 0.0 0.0 0.00 0.00 0.00 90 1018.6
20210723011855 23 23 0.0 0.0 0.00 0.00 0.00 90 1018.3
20210723011354 23 23 0.0 0.0 0.00 0.00 0.00 89 1018.3
20210723010852 23 23 0.0 0.0 0.00 0.00 0.00 89 1018.3
20210723010350 23 23 0.0 0.0 0.00 0.00 0.00 88 1018.3
20210723005848 23 23 0.0 0.0 0.00 0.00 0.00 88 1018.3
20210723005346 23 23 0.0 0.0 0.00 0.00 0.00 88 1018.3
20210723004844 24 23 0.0 0.0 0.00 0.00 0.00 87 1018.3
20210723004338 24 23 0.0 0.0 0.00 0.00 0.00 87 1018.3
20210723003837 25 23 0.0 0.0 0.00 0.00 0.00 87 1018.3
20210723003335 25 23 0.0 0.0 0.00 0.00 0.00 86 1017.9
20210723002834 25 23 0.0 0.0 0.00 0.00 0.00 86 1017.9
20210723002331 25 23 0.0 0.0 0.00 0.00 0.00 86 1017.9
20210723001829 25 23 0.0 0.0 0.00 0.00 0.00 85 1017.9
20210723001321 25 23 0.0 0.0 0.00 0.00 0.00 84 1017.9
20210723000810 25 23 0.0 0.0 0.00 0.00 0.00 84 1017.6
20210723000258 26 23 0.0 0.0 0.00 0.00 0.00 84 1017.6
20210722235747 26 23 0.0 0.0 0.00 0.00 0.00 83 1017.6
20210722235238 26 23 0.0 0.0 0.00 0.00 0.00 83 1017.6
20210722234723 26 23 0.0 3.2 0.00 0.00 0.00 82 1017.6
20210722234222 26 23 0.0 3.2 0.00 0.00 0.00 80 1017.6
20210722233714 27 23 0.0 3.2 0.00 0.00 0.00 80 1017.6
20210722233213 27 23 1.6 3.2 0.00 0.00 0.00 79 1017.6
20210722232707 27 17 1.6 3.2 0.00 0.00 0.00 78 1017.6
20210722232205 28 309 0.0 0.0 0.00 0.00 0.00 78 1017.6
20210722231704 28 309 0.0 0.0 0.00 0.00 0.00 77 1017.3
20210722231203 28 309 0.0 0.0 0.00 0.00 0.00 75 1017.3
20210722230702 28 309 0.0 0.0 0.00 0.00 0.00 73 1017.3
20210722230200 28 309 0.0 3.2 0.00 0.00 0.00 72 1017.3
20210722225658 28 309 0.0 8.0 0.00 0.00 0.00 70 1017.3
20210722225156 28 309 0.0 8.0 0.00 0.00 0.00 67 1017.3
20210722224655 28 309 0.0 8.0 0.00 0.00 0.00 65 1017.3
20210722224154 28 331 1.6 8.0 0.00 0.00 0.00 61 1017.3
20210722223653 28 335 1.6 4.8 0.00 0.00 0.00 65 1017.3
20210722223152 29 337 1.6 8.0 0.00 0.00 0.00 65 1017.3
20210722222651 29 338 1.6 9.7 0.00 0.00 0.00 64 1017.3
20210722222150 29 339 1.6 9.7 0.00 0.00 0.00 62 1017.6
20210722221649 29 307 3.2 9.7 0.00 0.00 0.00 60 1017.6
20210722221148 29 333 4.8 9.7 0.00 0.00 0.00 61 1017.6
20210722220647 30 355 4.8 9.7 0.00 0.00 0.00 61 1017.6
20210722220146 30 321 3.2 4.8 0.00 0.00 0.00 61 1017.6
20210722215645 30 333 1.6 4.8 0.00 0.00 0.00 60 1017.6
20210722215144 30 7 3.2 4.8 0.00 0.00 0.00 59 1017.6
20210722214643 31 297 1.6 3.2 0.00 0.00 0.00 57 1017.6
20210722214141 31 294 1.6 4.8 0.00 0.00 0.00 59 1017.6
20210722213640 31 294 1.6 4.8 0.00 0.00 0.00 59 1017.6
20210722213139 31 294 0.0 8.0 0.00 0.00 0.00 58 1017.6
20210722212638 31 299 1.6 8.0 0.00 0.00 0.00 58 1017.6
20210722212137 31 353 1.6 8.0 0.00 0.00 0.00 58 1017.6
20210722211636 31 39 3.2 8.0 0.00 0.00 0.00 58 1017.6
20210722211135 31 78 1.6 3.2 0.00 0.00 0.00 58 1017.6
20210722210633 31 131 0.0 4.8 0.00 0.00 0.00 55 1017.6
20210722210132 31 300 1.6 8.0 0.00 0.00 0.00 59 1017.6
20210722205631 30 317 0.0 12.9 0.00 0.00 0.00 61 1017.9
20210722205130 30 333 1.6 12.9 0.00 0.00 0.00 58 1017.9
20210722204629 30 24 1.6 12.9 0.00 0.00 0.00 59 1017.9
20210722204128 30 333 3.2 12.9 0.00 0.00 0.00 59 1017.9
20210722203627 30 315 1.6 12.9 0.00 0.00 0.00 63 1017.9
20210722203126 30 359 4.8 12.9 0.00 0.00 0.00 57 1017.9
20210722202624 30 316 1.6 19.3 0.00 0.00 0.00 59 1017.9
20210722202123 30 341 3.2 19.3 0.00 0.00 0.00 59 1017.9
20210722201621 30 350 4.8 19.3 0.00 0.00 0.00 59 1017.9
20210722201120 30 351 8.0 19.3 0.00 0.00 0.00 60 1017.9
20210722200619 30 6 3.2 12.9 0.00 0.00 0.00 61 1017.9
20210722200118 30 357 3.2 9.7 0.00 0.00 0.00 61 1017.9
20210722195617 30 350 4.8 12.9 0.00 0.00 0.00 61 1017.9
20210722195116 30 341 6.4 12.9 0.00 0.00 0.00 59 1017.9
20210722194615 30 339 3.2 12.9 0.00 0.00 0.00 60 1017.9
20210722194114 30 336 6.4 12.9 0.00 0.00 0.00 60 1017.9
20210722193613 30 343 3.2 9.7 0.00 0.00 0.00 62 1017.9
20210722193111 30 284 1.6 17.7 0.00 0.00 0.00 62 1017.9
20210722192610 30 349 4.8 17.7 0.00 0.00 0.00 60 1017.9
20210722192109 30 346 3.2 17.7 0.00 0.00 0.00 62 1017.9
20210722191604 30 333 3.2 17.7 0.00 0.00 0.00 60 1017.9
20210722191102 30 337 6.4 17.7 0.00 0.00 0.00 60 1018.3
20210722190601 30 340 6.4 19.3 0.00 0.00 0.00 64 1018.3
20210722190100 30 349 4.8 19.3 0.00 0.00 0.00 61 1018.3
20210722185559 30 353 4.8 12.9 0.00 0.00 0.00 62 1018.3
20210722185058 30 24 3.2 17.7 0.00 0.00 0.00 63 1018.3
20210722184557 29 87 1.6 17.7 0.00 0.00 0.00 66 1018.3
20210722184056 29 55 3.2 17.7 0.00 0.00 0.00 64 1018.3
20210722183555 30 332 8.0 17.7 0.00 0.00 0.00 61 1018.3
20210722183054 30 53 3.2 17.7 0.00 0.00 0.00 63 1018.6
20210722182553 30 348 6.4 17.7 0.00 0.00 0.00 63 1018.6
20210722182051 30 56 4.8 9.7 0.00 0.00 0.00 61 1018.6
20210722181550 30 324 1.6 9.7 0.00 0.00 0.00 60 1018.6
20210722181049 30 11 3.2 9.7 0.00 0.00 0.00 60 1018.6
20210722180544 30 147 3.2 8.0 0.00 0.00 0.00 62 1018.6
20210722180043 30 150 0.0 8.0 0.00 0.00 0.00 62 1019.0
20210722175542 30 176 3.2 8.0 0.00 0.00 0.00 61 1019.0
20210722175041 30 171 3.2 8.0 0.00 0.00 0.00 62 1019.0
20210722174539 31 202 3.2 8.0 0.00 0.00 0.00 62 1019.0
20210722174038 31 225 1.6 4.8 0.00 0.00 0.00 64 1019.0
20210722173537 30 157 3.2 4.8 0.00 0.00 0.00 61 1019.0
20210722173035 30 155 1.6 4.8 0.00 0.00 0.00 63 1019.0
20210722172535 30 152 1.6 4.8 0.00 0.00 0.00 66 1019.0
20210722172033 30 238 1.6 4.8 0.00 0.00 0.00 66 1019.3
20210722171532 30 172 1.6 4.8 0.00 0.00 0.00 66 1019.3
20210722171031 30 267 1.6 4.8 0.00 0.00 0.00 67 1019.3
20210722170530 30 195 1.6 4.8 0.00 0.00 0.00 67 1019.3
20210722170029 30 180 1.6 4.8 0.00 0.00 0.00 70 1019.3
20210722165528 30 155 1.6 4.8 0.00 0.00 0.00 66 1019.3
20210722165027 30 159 0.0 4.8 0.00 0.00 0.00 68 1019.6
20210722164526 30 189 0.0 4.8 0.00 0.00 0.00 67 1019.6
20210722164026 30 169 1.6 4.8 0.00 0.00 0.00 66 1019.6
20210722163523 30 208 1.6 4.8 0.00 0.00 0.00 68 1019.6
20210722163022 30 193 1.6 4.8 0.00 0.00 0.00 70 1019.6
20210722162520 29 248 0.0 4.8 0.00 0.00 0.00 69 1019.6
20210722162019 29 160 1.6 8.0 0.00 0.00 0.00 69 1019.6
20210722161519 29 164 3.2 8.0 0.00 0.00 0.00 71 1019.6